createdAt,value
2022-09-05T00:01:17.773Z,11.16
2022-09-05T00:04:24.598Z,11.26
2022-09-05T00:06:43.071Z,11.24
2022-09-05T00:09:21.172Z,11.25
2022-09-05T00:11:56.831Z,11.31
2022-09-05T00:15:17.537Z,11.18
2022-09-05T00:18:06.301Z,11.28
2022-09-05T00:24:27.482Z,11.28
2022-09-05T00:24:37.608Z,10.94
2022-09-05T00:25:53.134Z,10.87
2022-09-05T00:28:27.772Z,11.15
2022-09-05T00:31:53.281Z,11.25
2022-09-05T00:34:07.829Z,11.16
2022-09-05T00:36:39.789Z,10.91
2022-09-05T00:39:14.198Z,10.93
2022-09-05T00:41:44.230Z,10.93
2022-09-05T00:44:15.889Z,10.92
2022-09-05T00:47:22.998Z,11.09
2022-09-05T00:49:55.038Z,11.18
2022-09-05T00:52:29.862Z,11.18
2022-09-05T00:55:10.342Z,11.18
2022-09-05T00:57:57.557Z,11.18
2022-09-05T01:00:35.520Z,11.37
2022-09-05T01:03:13.039Z,11.16
2022-09-05T01:06:01.502Z,11.30
2022-09-05T01:08:42.469Z,11.25
2022-09-05T01:11:32.480Z,11.31
2022-09-05T01:14:12.893Z,11.30
2022-09-05T01:16:50.300Z,11.44
2022-09-05T01:19:55.438Z,11.44
2022-09-05T01:22:45.531Z,11.29
2022-09-05T01:25:47.087Z,11.38
2022-09-05T01:29:15.254Z,11.38
2022-09-05T01:31:17.509Z,11.38
2022-09-05T01:34:12.436Z,11.45
2022-09-05T01:37:24.905Z,11.45
2022-09-05T01:40:11.307Z,11.37
2022-09-05T01:42:48.321Z,11.41
2022-09-05T01:45:37.570Z,11.35
2022-09-05T01:48:19.275Z,11.29
2022-09-05T01:51:29.205Z,11.25
2022-09-05T01:54:25.118Z,11.36
2022-09-05T01:57:05.649Z,11.31
2022-09-05T01:59:58.811Z,11.22
2022-09-05T02:02:39.888Z,11.34
2022-09-05T02:05:47.290Z,11.09
2022-09-05T02:08:18.820Z,11.31
2022-09-05T02:11:08.705Z,10.97
2022-09-05T02:13:40.647Z,10.97
2022-09-05T02:16:15.444Z,11.09
2022-09-05T02:18:47.644Z,11.03
2022-09-05T02:21:28.515Z,11.09
2022-09-05T02:24:03.652Z,11.09
2022-09-05T02:26:56.660Z,11.19
2022-09-05T02:29:53.453Z,11.20
2022-09-05T02:32:28.482Z,11.27
2022-09-05T02:35:02.011Z,11.27
2022-09-05T02:40:41.374Z,11.07
2022-09-05T02:45:05.997Z,11.07
2022-09-05T02:45:20.203Z,11.26
2022-09-05T02:45:55.986Z,11.27
2022-09-05T02:48:47.430Z,11.20
2022-09-05T02:57:27.700Z,11.18
2022-09-05T02:57:32.761Z,10.96
2022-09-05T02:57:37.222Z,10.96
2022-09-05T02:59:56.623Z,10.89
2022-09-05T03:02:31.546Z,11.06
2022-09-05T03:05:04.723Z,11.06
2022-09-05T03:08:01.290Z,11.16
2022-09-05T03:10:54.282Z,11.31
2022-09-05T03:13:37.866Z,11.31
2022-09-05T03:16:47.593Z,11.53
2022-09-05T03:19:54.301Z,11.53
2022-09-05T03:22:41.314Z,11.82
2022-09-05T03:25:30.678Z,11.91
2022-09-05T03:28:20.646Z,11.98
2022-09-05T03:30:52.671Z,12.40
2022-09-05T03:33:39.750Z,12.40
2022-09-05T03:36:23.734Z,13.53
2022-09-05T03:39:13.901Z,14.48
2022-09-05T03:41:57.936Z,15.37
2022-09-05T03:44:51.287Z,17.06
2022-09-05T03:47:39.639Z,17.63
2022-09-05T03:55:35.323Z,17.63
2022-09-05T03:57:13.296Z,19.65
2022-09-05T03:57:25.093Z,19.32
2022-09-05T03:59:12.069Z,19.32
2022-09-05T04:04:10.826Z,20.70
2022-09-05T04:08:13.956Z,20.90
2022-09-05T04:08:17.538Z,20.90
2022-09-05T04:10:08.065Z,20.73
2022-09-05T04:12:51.998Z,20.81
2022-09-05T04:15:29.673Z,20.63
2022-09-05T04:18:04.705Z,21.22
2022-09-05T04:20:42.741Z,21.22
2022-09-05T04:23:34.416Z,22.58
2022-09-05T04:26:15.444Z,21.83
2022-09-05T04:29:05.410Z,22.28
2022-09-05T04:32:17.683Z,22.52
2022-09-05T04:34:53.372Z,22.52
2022-09-05T04:37:48.857Z,22.78
2022-09-05T04:40:35.689Z,23.31
2022-09-05T04:43:16.597Z,22.38
2022-09-05T04:46:09.898Z,22.55
2022-09-05T04:48:42.326Z,23.10
2022-09-05T04:51:14.715Z,23.14
2022-09-05T04:54:17.358Z,23.14
2022-09-05T04:56:49.323Z,23.81
2022-09-05T05:05:39.357Z,23.70
2022-09-05T05:06:08.914Z,23.66
2022-09-05T05:06:09.584Z,23.66
2022-09-05T05:07:29.592Z,23.36
2022-09-05T05:11:04.530Z,24.12
2022-09-05T05:18:01.445Z,23.29
2022-09-05T05:18:01.917Z,23.65
2022-09-05T05:18:40.987Z,23.29
2022-09-05T05:20:57.723Z,23.98
2022-09-05T05:23:38.655Z,24.26
2022-09-05T05:26:10.683Z,24.87
2022-09-05T05:29:00.884Z,24.71
2022-09-05T05:31:38.436Z,24.99
2022-09-05T05:34:24.605Z,25.32
2022-09-05T05:37:04.950Z,25.32
2022-09-05T05:39:37.408Z,24.84
2022-09-05T05:42:08.335Z,25.93
2022-09-05T05:44:41.830Z,25.14
2022-09-05T05:47:29.845Z,25.14
2022-09-05T05:50:03.731Z,24.90
2022-09-05T05:53:09.059Z,24.65
2022-09-05T05:56:13.084Z,25.27
2022-09-05T05:59:07.256Z,25.27
2022-09-05T06:01:45.062Z,26.12
2022-09-05T06:04:23.233Z,25.64
2022-09-05T06:07:10.296Z,25.74
2022-09-05T06:14:52.569Z,25.56
2022-09-05T06:14:58.260Z,25.56
2022-09-05T06:15:43.940Z,26.47
2022-09-05T06:18:25.096Z,26.66
2022-09-05T06:22:06.006Z,26.66
2022-09-05T06:24:06.003Z,25.21
2022-09-05T06:27:11.250Z,24.96
2022-09-05T06:30:01.628Z,24.68
2022-09-05T06:32:40.190Z,24.68
2022-09-05T06:35:31.566Z,27.28
2022-09-05T06:38:27.437Z,27.28
2022-09-05T06:41:05.008Z,25.98
2022-09-05T06:43:43.225Z,26.55
2022-09-05T06:46:55.288Z,27.46
2022-09-05T06:49:37.277Z,27.39
2022-09-05T06:52:29.940Z,27.74
2022-09-05T06:55:20.957Z,28.48
2022-09-05T06:57:58.763Z,28.48
2022-09-05T07:00:51.643Z,27.24
2022-09-05T07:03:41.990Z,26.76
2022-09-05T07:06:52.372Z,26.76
2022-09-05T07:09:16.128Z,26.99
2022-09-05T07:12:19.124Z,26.18
2022-09-05T07:15:15.883Z,25.83
2022-09-05T07:18:09.996Z,25.83
2022-09-05T07:21:16.342Z,26.38
2022-09-05T07:24:07.193Z,24.93
2022-09-05T07:26:20.502Z,26.12
2022-09-05T07:28:46.815Z,26.12
2022-09-05T07:31:37.043Z,26.33
2022-09-05T07:33:55.027Z,27.56
2022-09-05T07:36:26.956Z,27.32
2022-09-05T07:39:25.331Z,28.45
2022-09-05T07:41:38.052Z,28.45
2022-09-05T07:44:18.875Z,27.34
2022-09-05T07:46:54.181Z,27.34
2022-09-05T07:49:26.174Z,25.99
2022-09-05T07:56:47.762Z,26.13
2022-09-05T07:57:03.721Z,28.68
2022-09-05T07:59:41.964Z,28.33
2022-09-05T08:02:14.076Z,28.80
2022-09-05T08:04:43.677Z,28.23
2022-09-05T08:07:49.684Z,28.23
2022-09-05T08:10:06.837Z,28.39
2022-09-05T08:12:29.290Z,29.28
2022-09-05T08:15:13.934Z,28.76
2022-09-05T08:17:41.369Z,28.76
2022-09-05T08:20:13.428Z,29.89
2022-09-05T08:22:47.996Z,29.71
2022-09-05T08:25:56.535Z,29.71
2022-09-05T08:28:13.805Z,28.34
2022-09-05T08:30:48.720Z,28.19
2022-09-05T08:33:20.729Z,28.19
2022-09-05T08:36:00.970Z,28.58
2022-09-05T08:38:40.638Z,28.58
2022-09-05T08:41:17.273Z,29.38
2022-09-05T08:46:35.412Z,28.93
2022-09-05T08:46:49.060Z,28.12
2022-09-05T08:49:32.370Z,28.12
2022-09-05T08:52:15.110Z,28.12
2022-09-05T08:54:50.024Z,27.82
2022-09-05T08:57:21.982Z,26.28
2022-09-05T09:00:19.808Z,25.54
2022-09-05T09:03:04.350Z,25.54
2022-09-05T09:06:12.516Z,25.86
2022-09-05T09:08:22.266Z,27.42
2022-09-05T09:11:03.359Z,28.84
2022-09-05T09:13:59.768Z,28.84
2022-09-05T09:16:42.483Z,29.22
2022-09-05T09:19:29.426Z,28.00
2022-09-05T09:22:03.206Z,28.51
2022-09-05T09:24:41.314Z,26.15
2022-09-05T09:27:36.419Z,26.15
2022-09-05T09:29:59.622Z,24.72
2022-09-05T09:32:29.729Z,24.72
2022-09-05T09:35:08.000Z,24.53
2022-09-05T09:38:10.921Z,23.98
2022-09-05T09:41:02.282Z,23.79
2022-09-05T09:43:34.377Z,23.79
2022-09-05T09:46:33.918Z,24.97
2022-09-05T09:49:42.519Z,24.91
2022-09-05T09:52:34.138Z,24.09
2022-09-05T09:55:23.713Z,24.62
2022-09-05T09:58:01.100Z,25.60
2022-09-05T10:00:51.243Z,25.60
2022-09-05T10:09:38.339Z,25.93
2022-09-05T10:10:39.642Z,27.76
2022-09-05T10:10:54.588Z,27.30
2022-09-05T10:11:50.032Z,27.47
2022-09-05T10:14:38.053Z,26.73
2022-09-05T10:16:49.973Z,25.58
2022-09-05T10:22:37.429Z,23.68
2022-09-05T10:25:19.341Z,23.68
2022-09-05T10:28:04.998Z,24.20
2022-09-05T10:32:17.940Z,23.11
2022-09-05T10:35:12.790Z,23.11
2022-09-05T10:35:56.261Z,23.19
2022-09-05T10:38:32.749Z,23.38
2022-09-05T10:41:21.441Z,23.17
2022-09-05T10:43:51.278Z,22.75
2022-09-05T10:46:54.479Z,22.77
2022-09-05T10:49:12.842Z,23.54
2022-09-05T10:51:51.814Z,23.54
2022-09-05T10:54:24.455Z,23.91
2022-09-05T10:57:02.754Z,23.88
2022-09-05T11:01:56.048Z,24.05
2022-09-05T11:02:30.354Z,23.74
2022-09-05T11:05:07.168Z,23.74
2022-09-05T11:07:45.224Z,24.37
2022-09-05T11:10:17.634Z,24.00
2022-09-05T11:13:01.925Z,24.25
2022-09-05T11:16:03.837Z,24.58
2022-09-05T11:18:54.985Z,24.58
2022-09-05T11:21:16.729Z,24.74
2022-09-05T11:23:57.488Z,24.50
2022-09-05T11:26:38.048Z,24.64
2022-09-05T11:29:10.240Z,24.50
2022-09-05T11:34:56.611Z,24.50
2022-09-05T11:39:51.149Z,24.46
2022-09-05T11:39:53.716Z,24.53
2022-09-05T11:40:39.366Z,24.08
2022-09-05T11:43:25.061Z,24.20
2022-09-05T11:46:08.953Z,23.88
2022-09-05T11:49:10.319Z,23.33
2022-09-05T11:52:08.026Z,23.33
2022-09-05T11:55:20.600Z,23.72
2022-09-05T11:58:43.157Z,23.72
2022-09-05T12:03:59.730Z,23.80
2022-09-05T12:06:48.100Z,23.87
2022-09-05T12:09:24.576Z,24.07
2022-09-05T12:12:30.000Z,24.07
2022-09-05T12:14:59.386Z,24.04
2022-09-05T12:18:19.632Z,23.63
2022-09-05T12:20:57.373Z,23.47
2022-09-05T12:24:49.751Z,23.47
2022-09-05T12:27:38.395Z,23.10
2022-09-05T12:29:32.703Z,22.75
2022-09-05T12:32:37.738Z,23.05
2022-09-05T12:36:06.439Z,23.14
2022-09-05T12:40:54.888Z,23.39
2022-09-05T12:40:57.773Z,23.39
2022-09-05T12:41:35.369Z,23.92
2022-09-05T12:42:40.126Z,23.48
2022-09-05T12:45:05.982Z,23.61
2022-09-05T12:47:53.281Z,23.61
2022-09-05T12:50:26.069Z,23.42
2022-09-05T12:53:02.302Z,23.52
2022-09-05T12:57:44.327Z,23.69
2022-09-05T13:03:01.407Z,23.43
2022-09-05T13:03:01.666Z,23.69
2022-09-05T13:04:19.075Z,23.13
2022-09-05T13:06:39.384Z,23.46
2022-09-05T13:09:16.050Z,23.46
2022-09-05T13:14:52.980Z,23.41
2022-09-05T13:14:58.315Z,23.52
2022-09-05T13:16:57.260Z,23.49
2022-09-05T13:19:32.071Z,23.43
2022-09-05T13:22:04.331Z,23.42
2022-09-05T13:24:37.973Z,23.12
2022-09-05T13:27:18.707Z,23.12
2022-09-05T13:30:59.436Z,23.15
2022-09-05T13:37:56.410Z,23.24
2022-09-05T13:38:17.981Z,23.30
2022-09-05T13:38:37.635Z,23.44
2022-09-05T13:40:42.164Z,23.54
2022-09-05T13:43:17.699Z,23.54
2022-09-05T13:46:05.172Z,23.38
2022-09-05T13:51:34.051Z,23.11
2022-09-05T13:54:12.040Z,23.11
2022-09-05T13:57:12.850Z,22.92
2022-09-05T13:59:46.816Z,23.15
2022-09-05T14:03:29.772Z,23.18
2022-09-05T14:05:33.630Z,22.80
2022-09-05T14:08:20.937Z,22.94
2022-09-05T14:11:24.648Z,22.95
2022-09-05T14:14:04.832Z,22.91
2022-09-05T14:16:47.904Z,23.10
2022-09-05T14:19:28.789Z,23.27
2022-09-05T14:22:02.784Z,23.10
2022-09-05T14:24:34.756Z,23.06
2022-09-05T14:27:06.772Z,22.99
2022-09-05T14:29:50.837Z,22.90
2022-09-05T14:37:42.124Z,22.92
2022-09-05T14:37:45.521Z,22.90
2022-09-05T14:38:11.616Z,22.61
2022-09-05T14:40:51.388Z,22.77
2022-09-05T14:43:27.228Z,22.71
2022-09-05T14:46:21.041Z,22.55
2022-09-05T14:48:58.605Z,22.66
2022-09-05T14:51:43.220Z,22.48
2022-09-05T14:59:08.937Z,22.25
2022-09-05T15:02:47.777Z,22.34
2022-09-05T15:02:52.509Z,22.30
2022-09-05T15:04:48.661Z,22.37
2022-09-05T15:07:32.397Z,22.22
2022-09-05T15:11:56.350Z,22.16
2022-09-05T15:13:08.533Z,21.94
2022-09-05T15:15:40.436Z,21.77
2022-09-05T15:18:21.323Z,21.77
2022-09-05T15:20:53.119Z,21.78
2022-09-05T15:23:26.134Z,21.78
2022-09-05T15:26:26.614Z,21.64
2022-09-05T15:29:12.900Z,21.64
2022-09-05T15:31:26.350Z,21.42
2022-09-05T15:33:56.953Z,21.42
2022-09-05T15:36:34.982Z,21.47
2022-09-05T15:39:22.197Z,21.09
2022-09-05T15:41:52.990Z,21.09
2022-09-05T15:44:27.716Z,20.97
2022-09-05T15:47:03.701Z,20.90
2022-09-05T15:49:44.613Z,20.70
2022-09-05T15:52:27.310Z,20.58
2022-09-05T15:55:07.402Z,20.50
2022-09-05T15:57:42.462Z,20.42
2022-09-05T16:00:14.612Z,20.30
2022-09-05T16:02:55.452Z,20.21
2022-09-05T16:10:29.255Z,19.94
2022-09-05T16:10:37.635Z,19.94
2022-09-05T16:10:59.073Z,19.79
2022-09-05T16:13:17.803Z,19.79
2022-09-05T16:22:26.650Z,19.72
2022-09-05T16:23:13.668Z,19.56
2022-09-05T16:23:24.444Z,19.39
2022-09-05T16:23:41.470Z,19.39
2022-09-05T16:26:12.842Z,19.36
2022-09-05T16:28:47.012Z,19.23
2022-09-05T16:31:43.175Z,19.23
2022-09-05T16:34:15.168Z,19.21
2022-09-05T16:37:07.978Z,19.12
2022-09-05T16:39:27.038Z,19.02
2022-09-05T16:42:01.869Z,19.02
2022-09-05T16:44:36.964Z,18.97
2022-09-05T16:47:25.409Z,19.12
2022-09-05T16:50:24.911Z,19.12
2022-09-05T16:53:05.422Z,18.95
2022-09-05T16:55:40.783Z,18.95
2022-09-05T16:58:21.706Z,18.98
2022-09-05T17:00:56.459Z,18.93
2022-09-05T17:03:46.627Z,18.94
2022-09-05T17:06:25.808Z,18.38
2022-09-05T17:09:10.413Z,18.67
2022-09-05T17:11:29.788Z,18.67
2022-09-05T17:14:01.760Z,18.59
2022-09-05T17:16:49.534Z,18.59
2022-09-05T17:19:22.403Z,18.79
2022-09-05T17:24:09.686Z,18.72
2022-09-05T17:29:15.848Z,18.72
2022-09-05T17:29:37.961Z,18.92
2022-09-05T17:32:52.460Z,18.55
2022-09-05T17:35:24.506Z,18.68
2022-09-05T17:38:13.157Z,18.46
2022-09-05T17:40:58.555Z,18.64
2022-09-05T17:43:37.454Z,18.64
2022-09-05T17:46:24.475Z,18.39
2022-09-05T17:49:18.290Z,18.83
2022-09-05T17:51:34.348Z,18.76
2022-09-05T17:54:07.942Z,18.62
2022-09-05T17:56:47.794Z,18.62
2022-09-05T17:59:23.538Z,18.78
2022-09-05T18:02:08.053Z,18.68
2022-09-05T18:04:56.089Z,18.77
2022-09-05T18:07:31.072Z,18.77
2022-09-05T18:10:12.484Z,18.55
2022-09-05T18:13:12.889Z,18.53
2022-09-05T18:15:16.486Z,18.58
2022-09-05T18:17:48.451Z,18.58
2022-09-05T18:20:35.792Z,18.41
2022-09-05T18:23:37.566Z,18.55
2022-09-05T18:26:00.202Z,18.55
2022-09-05T18:28:38.157Z,18.63
2022-09-05T18:31:41.898Z,18.34
2022-09-05T18:34:20.416Z,18.32
2022-09-05T18:36:52.884Z,18.09
2022-09-05T18:39:36.860Z,18.09
2022-09-05T18:42:33.021Z,18.01
2022-09-05T18:44:59.755Z,18.01
2022-09-05T18:47:50.983Z,17.95
2022-09-05T18:50:25.476Z,17.78
2022-09-05T18:52:49.599Z,17.60
2022-09-05T18:56:10.652Z,17.60
2022-09-05T18:58:02.778Z,17.54
2022-09-05T19:00:45.050Z,17.48
2022-09-05T19:03:25.455Z,17.26
2022-09-05T19:06:35.942Z,17.11
2022-09-05T19:08:37.319Z,17.25
2022-09-05T19:11:27.896Z,17.07
2022-09-05T19:13:46.675Z,17.17
2022-09-05T19:16:47.481Z,17.19
2022-09-05T19:19:07.209Z,17.08
2022-09-05T19:21:43.531Z,17.08
2022-09-05T19:24:15.271Z,17.07
2022-09-05T19:26:49.756Z,17.05
2022-09-05T19:36:52.471Z,17.05
2022-09-05T19:36:52.704Z,16.76
2022-09-05T19:36:55.587Z,16.92
2022-09-05T19:47:26.709Z,16.63
2022-09-05T19:47:36.394Z,16.66
2022-09-05T19:47:37.951Z,16.63
2022-09-05T19:50:11.591Z,16.67
2022-09-05T19:52:41.152Z,16.67
2022-09-05T19:55:22.493Z,16.47
2022-09-05T19:58:18.642Z,16.68
2022-09-05T20:00:26.296Z,16.39
2022-09-05T20:02:57.360Z,16.66
2022-09-05T20:05:26.993Z,16.77
2022-09-05T20:07:59.455Z,16.77
2022-09-05T20:10:33.765Z,16.79
2022-09-05T20:13:04.472Z,16.86
2022-09-05T20:15:38.162Z,16.98
2022-09-05T20:18:22.273Z,17.06
2022-09-05T20:20:57.369Z,16.87
2022-09-05T20:23:29.051Z,16.91
2022-09-05T20:25:58.828Z,16.87
2022-09-05T20:28:31.260Z,16.82
2022-09-05T20:31:04.293Z,16.82
2022-09-05T20:33:51.729Z,16.83
2022-09-05T20:43:11.730Z,16.83
2022-09-05T20:43:24.419Z,16.78
2022-09-05T20:43:29.815Z,16.76
2022-09-05T20:44:22.752Z,16.76
2022-09-05T20:48:52.029Z,16.70
2022-09-05T20:54:10.490Z,16.69
2022-09-05T20:54:14.521Z,16.81
2022-09-05T20:54:56.192Z,16.81
2022-09-05T20:57:34.730Z,16.69
2022-09-05T21:00:15.382Z,16.73
2022-09-05T21:02:56.210Z,16.74
2022-09-05T21:05:31.099Z,16.60
2022-09-05T21:08:23.357Z,16.68
2022-09-05T21:10:57.824Z,16.68
2022-09-05T21:13:52.300Z,16.62
2022-09-05T21:16:18.731Z,16.62
2022-09-05T21:18:48.319Z,16.67
2022-09-05T21:21:28.558Z,16.62
2022-09-05T21:24:17.451Z,16.37
2022-09-05T21:26:43.074Z,16.37
2022-09-05T21:29:17.829Z,16.34
2022-09-05T21:31:54.443Z,16.34
2022-09-05T21:34:45.239Z,16.32
2022-09-05T21:37:15.408Z,16.03
2022-09-05T21:39:59.499Z,16.15
2022-09-05T21:44:52.783Z,16.15
2022-09-05T21:47:39.616Z,16.42
2022-09-05T21:47:41.738Z,16.26
2022-09-05T21:49:57.269Z,16.23
2022-09-05T21:52:28.291Z,16.32
2022-09-05T21:59:16.978Z,16.37
2022-09-05T21:59:28.484Z,16.42
2022-09-05T22:00:10.815Z,16.42
2022-09-05T22:02:38.270Z,16.48
2022-09-05T22:05:08.081Z,16.48
2022-09-05T22:07:37.621Z,16.19
2022-09-05T22:10:09.118Z,16.37
2022-09-05T22:12:39.394Z,16.37
2022-09-05T22:15:27.586Z,16.28
2022-09-05T22:17:46.988Z,16.12
2022-09-05T22:20:20.551Z,16.12
2022-09-05T22:22:56.485Z,16.32
2022-09-05T22:25:28.006Z,16.19
2022-09-05T22:28:00.079Z,16.25
2022-09-05T22:30:29.169Z,16.04
2022-09-05T22:32:58.391Z,15.79
2022-09-05T22:35:28.978Z,15.79
2022-09-05T22:38:07.030Z,15.97
2022-09-05T22:40:34.465Z,15.97
2022-09-05T22:43:06.010Z,15.83
2022-09-05T22:45:36.593Z,15.83
2022-09-05T22:48:11.172Z,15.86
2022-09-05T22:50:41.371Z,15.86
2022-09-05T22:53:11.493Z,15.27
2022-09-05T22:55:42.872Z,15.34
2022-09-05T22:58:14.723Z,15.27
2022-09-05T23:00:45.004Z,15.11
2022-09-05T23:03:14.039Z,15.11
2022-09-05T23:05:43.230Z,14.66
2022-09-05T23:08:12.636Z,14.66
2022-09-05T23:10:41.764Z,14.50
2022-09-05T23:13:11.980Z,14.62
2022-09-05T23:15:41.078Z,14.37
2022-09-05T23:18:10.312Z,14.46
2022-09-05T23:20:39.581Z,14.23
2022-09-05T23:23:09.563Z,14.28
2022-09-05T23:25:39.473Z,14.54
2022-09-05T23:28:10.328Z,14.38
2022-09-05T23:30:40.379Z,14.38
2022-09-05T23:33:11.117Z,14.13
2022-09-05T23:35:40.260Z,14.07
2022-09-05T23:38:13.858Z,14.05
2022-09-05T23:40:43.063Z,14.34
2022-09-05T23:43:12.128Z,14.27
2022-09-05T23:45:41.243Z,14.27
2022-09-05T23:48:10.343Z,14.02
2022-09-05T23:50:39.542Z,14.02
2022-09-05T23:53:08.641Z,14.08
2022-09-05T23:55:37.731Z,14.24
2022-09-05T23:58:06.820Z,14.24
